Time;durP1;ratioP1;P1;durP2;ratioP2;P2;SDS_P1;SDS_P2;PMS_P1;PMS_P2;Temp;Humidity;BMP_temperature;BMP_pressure;BME280_temperature;BME280_humidity;BME280_pressure;Samples;Min_cycle;Max_cycle;Signal;HPM_P1;HPM_P2
2023/10/05 00:02:11;;;;;;;29.00;16.50;;;;;;;14.17;100.00;100587.80;105605;1258;62808;-63
2023/10/05 00:04:45;;;;;;;31.60;15.70;;;;;;;14.20;100.00;100587.80;105715;1259;59859;-63
2023/10/05 00:07:19;;;;;;;30.50;16.50;;;;;;;14.24;100.00;100588.56;105419;1258;73964;-65
2023/10/05 00:09:48;;;;;;;28.80;15.90;;;;;;;14.26;100.00;100591.92;105863;1253;66746;-62
2023/10/05 00:12:20;;;;;;;26.30;15.50;;;;;;;14.28;100.00;100595.64;105594;1258;72513;-62
2023/10/05 00:14:55;;;;;;;28.60;15.70;;;;;;;14.31;100.00;100596.36;105457;1259;60088;-63
2023/10/05 00:17:22;;;;;;;32.70;17.50;;;;;;;14.31;100.00;100597.14;105628;1253;60572;-62
2023/10/05 00:19:50;;;;;;;31.10;16.70;;;;;;;14.31;100.00;100589.31;105705;1257;73021;-63
2023/10/05 00:22:20;;;;;;;26.80;15.00;;;;;;;14.30;100.00;100598.76;105747;1254;66980;-63
2023/10/05 00:24:49;;;;;;;31.10;16.40;;;;;;;14.27;100.00;100602.42;105674;1253;73735;-65
2023/10/05 00:27:19;;;;;;;26.50;15.40;;;;;;;14.23;100.00;100606.80;105617;1253;59697;-65
2023/10/05 00:29:53;;;;;;;31.10;16.80;;;;;;;14.16;100.00;100611.02;105693;1258;59642;-65
2023/10/05 00:32:35;;;;;;;29.90;16.10;;;;;;;14.07;100.00;100613.05;105675;1258;73036;-65
2023/10/05 00:35:38;;;;;;;30.30;16.30;;;;;;;13.98;100.00;100613.10;106368;1257;66577;-65
2023/10/05 00:38:16;;;;;;;26.80;15.00;;;;;;;13.90;100.00;100615.82;105314;1256;72388;-64
2023/10/05 00:40:58;;;;;;;28.00;16.10;;;;;;;13.81;100.00;100614.70;105749;1253;61696;-64
2023/10/05 00:43:27;;;;;;;28.50;15.70;;;;;;;13.75;100.00;100620.95;105599;1263;60165;-64
2023/10/05 00:45:57;;;;;;;30.60;15.50;;;;;;;13.68;100.00;100622.94;105473;1253;72362;-65
2023/10/05 00:48:34;;;;;;;27.70;15.70;;;;;;;13.63;100.00;100624.04;105626;1253;66374;-64
2023/10/05 00:51:14;;;;;;;28.40;15.90;;;;;;;13.58;100.00;100627.91;105543;1259;72709;-66
2023/10/05 00:53:42;;;;;;;28.90;16.30;;;;;;;13.52;100.00;100632.98;105890;1259;61737;-67
2023/10/05 00:56:15;;;;;;;31.30;16.30;;;;;;;13.47;100.00;100637.00;105675;1253;59719;-66
2023/10/05 00:58:44;;;;;;;34.60;17.50;;;;;;;13.40;100.00;100643.57;105952;1253;72798;-68
2023/10/05 01:01:16;;;;;;;28.50;15.50;;;;;;;13.34;100.00;100650.42;105197;1258;65568;-66
2023/10/05 01:04:17;;;;;;;33.10;15.80;;;;;;;13.30;100.00;100648.55;105879;1258;71373;-68
2023/10/05 01:06:47;;;;;;;31.00;16.70;;;;;;;13.24;100.00;100653.80;105824;1259;61113;-67
2023/10/05 01:14:46;;;;;;;28.30;15.60;;;;;;;13.05;100.00;100667.45;105580;1259;66892;-70
2023/10/05 01:17:13;;;;;;;29.10;15.80;;;;;;;13.01;100.00;100670.20;105334;1258;72701;-62
2023/10/05 01:19:43;;;;;;;31.10;17.20;;;;;;;12.99;100.00;100675.20;105390;1253;61618;-63
2023/10/05 01:22:14;;;;;;;26.80;15.00;;;;;;;12.96;100.00;100682.85;105556;1253;60052;-62
2023/10/05 01:24:45;;;;;;;24.50;14.00;;;;;;;12.95;100.00;100691.08;105483;1253;72135;-63
2023/10/05 01:27:13;;;;;;;26.80;15.10;;;;;;;12.93;100.00;100696.30;105998;1253;66887;-64
2023/10/05 01:29:41;;;;;;;29.40;15.80;;;;;;;12.93;100.00;100705.23;105510;1253;73605;-61
2023/10/05 01:32:15;;;;;;;29.30;15.40;;;;;;;12.93;100.00;100701.80;105642;1253;60124;-74
2023/10/05 01:34:49;;;;;;;28.60;16.10;;;;;;;12.91;100.00;100707.13;105783;1253;60025;-63
2023/10/05 01:37:21;;;;;;;26.60;15.50;;;;;;;12.90;100.00;100711.45;105989;1254;73093;-64
2023/10/05 01:39:49;;;;;;;29.20;14.70;;;;;;;12.90;100.00;100718.77;105912;1258;66083;-65
2023/10/05 01:42:18;;;;;;;29.90;14.90;;;;;;;12.90;100.00;100721.27;105774;1253;73365;-64
2023/10/05 01:44:49;;;;;;;27.30;14.00;;;;;;;12.90;100.00;100720.73;105767;1254;60418;-62
2023/10/05 01:47:17;;;;;;;24.60;14.70;;;;;;;12.90;100.00;100721.23;105810;1259;59617;-73
2023/10/05 01:49:45;;;;;;;29.70;15.60;;;;;;;12.93;100.00;100721.65;105504;1258;73156;-67
2023/10/05 01:52:16;;;;;;;30.10;15.50;;;;;;;12.94;100.00;100717.55;105793;1254;66887;-66
2023/10/05 01:54:44;;;;;;;25.50;14.60;;;;;;;12.94;100.00;100723.80;105729;1253;73229;-64
2023/10/05 01:57:16;;;;;;;26.80;14.50;;;;;;;12.95;100.00;100729.27;105700;1258;60458;-67
2023/10/05 02:07:49;;;;;;;24.30;14.20;;;;;;;12.93;100.00;100739.48;102264;1290;615432;-65
2023/10/05 02:10:20;;;;;;;25.80;14.60;;;;;;;12.92;100.00;100737.76;105107;1264;60689;-65
2023/10/05 02:13:00;;;;;;;28.50;15.10;;;;;;;12.94;100.00;100738.61;105066;1266;59128;-68
2023/10/05 02:15:28;;;;;;;24.60;14.00;;;;;;;12.94;100.00;100741.95;105260;1259;72230;-65
2023/10/05 02:18:12;;;;;;;28.50;14.90;;;;;;;12.94;100.00;100745.09;105045;1266;66139;-70
2023/10/05 02:20:45;;;;;;;25.90;14.30;;;;;;;12.94;100.00;100757.33;104920;1268;195137;-65
2023/10/05 02:23:25;;;;;;;27.00;15.20;;;;;;;12.93;100.00;100759.25;105380;1261;60397;-67
2023/10/05 02:25:57;;;;;;;28.10;15.20;;;;;;;12.91;100.00;100764.67;105202;1259;60613;-62
2023/10/05 02:28:27;;;;;;;27.60;14.80;;;;;;;12.89;100.00;100770.53;105511;1260;72176;-63
2023/10/05 02:30:59;;;;;;;25.90;13.70;;;;;;;12.89;100.00;100776.09;105300;1258;66835;-64
2023/10/05 02:33:32;;;;;;;24.20;14.10;;;;;;;12.90;100.00;100779.11;105346;1263;71293;-64
2023/10/05 02:36:21;;;;;;;26.60;13.60;;;;;;;12.92;100.00;100775.59;105388;1260;61370;-66
2023/10/05 02:38:49;;;;;;;26.90;14.10;;;;;;;12.96;100.00;100776.06;105400;1260;60224;-66
2023/10/05 02:41:17;;;;;;;23.70;13.40;;;;;;;12.98;100.00;100785.34;105267;1263;71098;-64
2023/10/05 02:43:52;;;;;;;24.10;13.60;;;;;;;12.99;100.00;100784.00;105388;1260;66723;-72
2023/10/05 02:46:20;;;;;;;22.50;13.50;;;;;;;13.04;100.00;100786.55;105459;1260;71419;-71
2023/10/05 02:48:47;;;;;;;24.60;13.70;;;;;;;13.07;100.00;100790.27;105294;1261;60451;-64
2023/10/05 02:51:16;;;;;;;23.10;13.70;;;;;;;13.08;100.00;100789.61;105344;1261;60042;-64
2023/10/05 02:53:46;;;;;;;23.70;13.60;;;;;;;13.09;100.00;100785.02;105350;1260;72236;-67
2023/10/05 02:56:22;;;;;;;20.50;12.90;;;;;;;13.12;100.00;100783.67;105401;1257;65956;-64
2023/10/05 02:59:01;;;;;;;23.60;13.00;;;;;;;13.14;100.00;100777.85;105580;1256;72567;-65
2023/10/05 03:01:32;;;;;;;21.60;12.30;;;;;;;13.14;100.00;100781.98;105377;1260;59745;-64
2023/10/05 03:04:04;;;;;;;21.90;12.90;;;;;;;13.16;100.00;100787.52;105551;1256;59628;-64
2023/10/05 03:17:18;;;;;;;23.40;13.10;;;;;;;13.52;100.00;100786.79;102649;1283;614017;-72
2023/10/05 03:19:50;;;;;;;21.70;11.80;;;;;;;13.62;100.00;100773.11;104126;1271;117057;-67
2023/10/05 03:22:23;;;;;;;20.90;12.30;;;;;;;13.59;100.00;100771.23;104429;1270;60701;-66
2023/10/05 03:24:56;;;;;;;21.80;12.40;;;;;;;13.55;100.00;100761.36;104537;1274;72258;-71
2023/10/05 03:27:25;;;;;;;20.60;13.30;;;;;;;13.48;100.00;100763.02;104378;1267;66034;-66
2023/10/05 03:29:59;;;;;;;21.10;11.90;;;;;;;13.42;100.00;100772.52;104339;1267;72744;-67
2023/10/05 03:47:34;;;;;;;24.00;13.30;;;;;;;13.33;100.00;100802.46;101801;1293;613016;-65
2023/10/05 03:50:03;;;;;;;20.80;11.70;;;;;;;13.38;100.00;100802.98;104412;1264;108672;-66
2023/10/05 03:52:32;;;;;;;21.30;12.60;;;;;;;13.33;100.00;100807.08;104545;1270;59340;-65
2023/10/05 03:55:09;;;;;;;19.70;10.80;;;;;;;13.29;100.00;100816.02;104254;1273;72294;-65
2023/10/05 03:57:43;;;;;;;18.20;11.30;;;;;;;13.22;100.00;100819.66;104208;1267;66933;-69
2023/10/05 04:00:23;;;;;;;18.50;11.70;;;;;;;13.16;100.00;100822.85;104174;1271;72423;-66
2023/10/05 04:02:53;;;;;;;18.60;12.20;;;;;;;13.11;100.00;100828.25;104352;1266;62290;-66
2023/10/05 04:05:22;;;;;;;18.10;10.90;;;;;;;13.09;100.00;100826.09;104519;1266;59173;-66
2023/10/05 04:25:19;;;;;;;15.50;10.50;;;;;;;13.75;100.00;100840.20;102378;1293;613683;-66
2023/10/05 04:27:47;;;;;;;16.00;11.00;;;;;;;14.11;100.00;100835.42;105481;1260;108839;-68
2023/10/05 04:30:21;;;;;;;18.60;10.40;;;;;;;14.21;100.00;100838.27;105405;1263;60081;-69
2023/10/05 04:32:49;;;;;;;15.40;10.10;;;;;;;14.24;100.00;100838.31;105277;1263;70380;-68
2023/10/05 04:35:26;;;;;;;16.10;10.20;;;;;;;14.21;100.00;100838.63;106248;1254;66889;-70
2023/10/05 04:37:56;;;;;;;15.30;9.50;;;;;;;14.21;100.00;100849.80;105566;1261;73830;-67
2023/10/05 04:40:25;;;;;;;16.30;10.20;;;;;;;14.24;100.00;100853.08;105735;1254;62164;-67
2023/10/05 04:42:58;;;;;;;15.60;9.20;;;;;;;14.30;100.00;100853.85;105713;1255;59238;-66
2023/10/05 04:45:27;;;;;;;16.30;9.40;;;;;;;14.40;100.00;100852.71;105858;1254;71945;-67
2023/10/05 04:47:58;;;;;;;14.60;8.80;;;;;;;14.53;100.00;100847.23;105654;1254;66675;-68
2023/10/05 04:50:27;;;;;;;;;;;;;;;14.70;100.00;100844.80;105707;1254;71507;-66
2023/10/05 04:52:55;;;;;;;15.80;10.00;;;;;;;14.83;100.00;100855.11;106254;1254;61701;-65
2023/10/05 04:55:30;;;;;;;16.30;10.00;;;;;;;14.93;100.00;100861.65;105953;1259;59712;-68
2023/10/05 06:04:19;;;;;;;11.10;7.70;;;;;;;19.29;100.00;100830.27;102689;1286;617431;-70
2023/10/05 06:06:48;;;;;;;12.50;7.90;;;;;;;21.00;100.00;100807.19;104505;1270;112691;-70
2023/10/05 06:09:19;;;;;;;9.40;7.00;;;;;;;21.78;100.00;100789.78;104556;1264;60263;-70
2023/10/05 06:11:49;;;;;;;11.80;8.20;;;;;;;22.52;100.00;100767.41;104847;1269;73865;-71
2023/10/05 06:14:17;;;;;;;9.80;7.60;;;;;;;23.07;100.00;100756.95;104711;1269;67939;-69
2023/10/05 06:16:45;;;;;;;10.40;8.20;;;;;;;23.36;100.00;100747.54;104641;1267;73139;-70
2023/10/05 06:19:13;;;;;;;9.30;7.50;;;;;;;23.32;100.00;100745.48;104657;1269;61894;-70
2023/10/05 06:21:42;;;;;;;11.00;8.60;;;;;;;23.18;100.00;100753.53;104774;1266;61717;-73
2023/10/05 06:24:10;;;;;;;14.90;8.60;;;;;;;23.10;100.00;100761.02;104917;1267;73774;-70
2023/10/05 06:26:38;;;;;;;9.80;7.50;;;;;;;23.01;100.00;100761.27;104605;1269;68695;-67
2023/10/05 06:29:08;;;;;;;10.70;8.70;;;;;;;23.07;100.00;100759.02;105007;1260;74106;-68
2023/10/05 06:31:38;;;;;;;12.40;8.10;;;;;;;23.39;100.00;100757.09;105411;1259;61135;-70
2023/10/05 06:34:09;;;;;;;10.70;7.90;;;;;;;23.58;100.00;100753.48;105419;1263;61838;-69
2023/10/05 06:36:40;;;;;;;10.90;7.90;;;;;;;23.60;100.00;100754.46;105455;1257;73593;-68
2023/10/05 06:39:14;;;;;;;10.60;7.30;;;;;;;23.86;100.00;100751.48;105434;1262;68781;-67
2023/10/05 06:41:53;;;;;;;8.50;6.60;;;;;;;24.39;100.00;100751.41;105498;1258;73384;-70
2023/10/05 06:44:23;;;;;;;10.10;7.60;;;;;;;24.87;100.00;100748.03;105387;1262;62449;-67
2023/10/05 06:46:53;;;;;;;10.20;7.20;;;;;;;25.23;100.00;100746.89;105356;1257;60611;-67
2023/10/05 06:49:22;;;;;;;9.10;6.30;;;;;;;25.54;100.00;100740.70;105722;1261;74756;-70
2023/10/05 06:51:49;;;;;;;7.70;6.10;;;;;;;25.92;100.00;100739.75;105542;1254;68142;-67
2023/10/05 06:54:18;;;;;;;9.60;6.40;;;;;;;26.42;100.00;100732.60;106171;1254;74080;-67
2023/10/05 06:56:49;;;;;;;8.30;6.00;;;;;;;27.04;100.00;100729.80;105830;1253;61811;-66
2023/10/05 06:59:20;;;;;;;7.60;6.20;;;;;;;27.59;100.00;100732.33;106166;1253;61890;-70
2023/10/05 07:01:48;;;;;;;8.60;6.10;;;;;;;28.04;100.00;100728.02;105728;1254;73380;-68
2023/10/05 07:04:18;;;;;;;8.80;6.40;;;;;;;28.24;99.95;100725.66;105752;1256;67782;-67
2023/10/05 07:06:45;;;;;;;9.10;6.40;;;;;;;28.13;95.90;100732.51;105767;1254;74343;-66
2023/10/05 07:09:13;;;;;;;9.20;6.50;;;;;;;27.79;94.35;100725.73;105900;1254;61965;-67
2023/10/05 07:11:40;;;;;;;7.80;6.50;;;;;;;27.44;97.12;100725.69;106031;1254;62092;-70
2023/10/05 07:14:09;;;;;;;7.80;6.10;;;;;;;27.08;99.90;100730.15;106036;1257;74737;-67
2023/10/05 07:16:37;;;;;;;8.70;6.60;;;;;;;26.74;100.00;100739.67;105726;1257;68599;-66
2023/10/05 07:19:07;;;;;;;8.10;6.30;;;;;;;26.47;100.00;100737.51;105881;1254;74205;-68
2023/10/05 07:21:36;;;;;;;11.30;6.70;;;;;;;26.29;100.00;100738.82;105701;1257;60876;-66
2023/10/05 07:24:04;;;;;;;12.10;8.90;;;;;;;26.12;100.00;100743.61;106262;1254;60870;-67
2023/10/05 07:26:31;;;;;;;11.00;8.80;;;;;;;25.94;100.00;100749.84;105822;1255;74597;-66
2023/10/05 07:28:59;;;;;;;11.30;8.70;;;;;;;25.79;100.00;100750.69;105690;1254;68960;-67
2023/10/05 07:31:26;;;;;;;10.50;8.00;;;;;;;25.74;100.00;100753.02;105684;1257;74526;-66
2023/10/05 07:33:54;;;;;;;9.70;7.90;;;;;;;25.83;100.00;100756.17;105752;1257;61708;-70
2023/10/05 07:36:22;;;;;;;11.00;7.20;;;;;;;26.03;100.00;100757.60;105798;1254;61714;-67
2023/10/05 07:38:50;;;;;;;9.90;7.30;;;;;;;26.29;100.00;100756.14;105674;1253;74558;-67
2023/10/05 07:41:17;;;;;;;9.70;7.90;;;;;;;26.56;100.00;100759.27;105463;1257;68955;-66
2023/10/05 07:43:53;;;;;;;15.90;7.30;;;;;;;26.89;100.00;100757.70;105846;1254;74137;-69
2023/10/05 07:46:35;;;;;;;8.00;6.40;;;;;;;27.34;100.00;100756.85;106083;1253;61277;-69
2023/10/05 07:49:03;;;;;;;8.30;6.40;;;;;;;27.81;98.01;100756.20;105379;1256;61039;-66
2023/10/05 07:51:33;;;;;;;8.30;6.50;;;;;;;28.19;91.21;100756.71;105356;1254;73647;-65
2023/10/05 07:54:00;;;;;;;8.00;5.70;;;;;;;28.37;82.95;100754.98;105437;1257;68668;-66
2023/10/05 07:56:32;;;;;;;7.80;6.50;;;;;;;28.42;79.44;100754.38;105460;1257;72808;-66
2023/10/05 07:59:01;;;;;;;6.30;4.60;;;;;;;28.53;76.62;100755.24;105242;1254;60817;-65
2023/10/05 08:01:28;;;;;;;6.40;5.10;;;;;;;28.69;67.36;100751.50;105828;1252;61840;-65
2023/10/05 08:03:56;;;;;;;7.60;4.70;;;;;;;28.86;65.63;100753.11;105902;1253;74511;-71
2023/10/05 08:06:25;;;;;;;6.30;4.80;;;;;;;29.03;63.71;100751.42;105247;1254;68000;-65
2023/10/05 08:08:53;;;;;;;6.60;3.50;;;;;;;29.30;59.19;100749.45;105582;1254;74117;-69
2023/10/05 08:11:21;;;;;;;5.20;3.50;;;;;;;29.49;53.89;100751.08;105485;1254;62790;-64
2023/10/05 08:13:48;;;;;;;5.50;3.10;;;;;;;29.61;50.26;100749.41;105543;1254;61720;-64
2023/10/05 08:16:15;;;;;;;5.20;2.50;;;;;;;29.54;45.30;100748.52;105228;1258;74488;-67
2023/10/05 08:18:43;;;;;;;4.80;2.70;;;;;;;29.05;42.65;100745.40;105775;1257;68416;-63
2023/10/05 08:21:11;;;;;;;4.90;3.40;;;;;;;28.48;43.21;100743.88;105863;1257;74466;-65
2023/10/05 08:23:38;;;;;;;5.30;2.80;;;;;;;28.04;43.70;100741.57;105656;1254;60621;-63
2023/10/05 08:26:07;;;;;;;6.10;2.80;;;;;;;27.45;44.12;100747.57;106021;1254;61706;-65
2023/10/05 08:28:35;;;;;;;4.80;2.80;;;;;;;26.90;47.24;100753.84;105805;1253;73153;-64
2023/10/05 08:31:07;;;;;;;8.60;3.50;;;;;;;26.45;52.36;100756.75;105795;1254;68629;-62
2023/10/05 08:33:34;;;;;;;6.00;3.60;;;;;;;26.00;56.73;100757.23;105786;1254;74182;-63
2023/10/05 08:36:06;;;;;;;5.90;3.20;;;;;;;25.57;61.34;100757.02;105742;1254;61929;-63
2023/10/05 08:38:34;;;;;;;5.60;3.30;;;;;;;25.25;65.44;100763.31;105648;1257;60779;-63
2023/10/05 08:41:07;;;;;;;5.40;3.20;;;;;;;25.00;66.49;100761.75;105848;1254;74679;-68
2023/10/05 08:43:38;;;;;;;5.70;3.70;;;;;;;24.82;69.75;100761.64;105772;1254;67076;-62
2023/10/05 08:46:10;;;;;;;4.30;3.10;;;;;;;24.62;71.27;100764.65;105927;1254;74205;-71
2023/10/05 08:48:37;;;;;;;5.40;3.10;;;;;;;24.45;78.15;100763.02;105736;1254;61776;-65
2023/10/05 08:51:15;;;;;;;6.20;3.20;;;;;;;24.58;78.61;100758.58;105768;1254;61837;-63
2023/10/05 08:53:50;;;;;;;5.40;2.90;;;;;;;25.01;71.25;100752.21;105783;1253;73730;-70
2023/10/05 08:56:20;;;;;;;6.20;3.70;;;;;;;25.51;68.98;100751.59;106175;1254;67559;-64
2023/10/05 08:58:48;;;;;;;6.90;4.00;;;;;;;25.90;61.13;100748.14;105797;1254;74103;-66
2023/10/05 09:01:23;;;;;;;6.10;4.80;;;;;;;26.04;56.65;100748.30;105723;1254;62200;-63
2023/10/05 09:04:01;;;;;;;4.70;3.50;;;;;;;25.87;52.56;100748.57;105534;1254;61341;-63
2023/10/05 09:06:28;;;;;;;4.40;2.60;;;;;;;25.45;47.98;100752.08;105547;1259;74534;-64
2023/10/05 09:09:07;;;;;;;7.10;3.60;;;;;;;24.99;47.06;100756.27;106158;1253;69347;-65
2023/10/05 09:11:35;;;;;;;5.30;2.50;;;;;;;24.59;49.12;100756.38;105820;1257;74448;-65
2023/10/05 09:14:13;;;;;;;4.40;2.70;;;;;;;24.49;48.84;100754.77;105766;1257;60630;-62
2023/10/05 09:16:45;;;;;;;4.80;2.40;;;;;;;24.43;47.11;100753.04;106204;1254;61998;-64
2023/10/05 09:19:17;;;;;;;3.90;2.30;;;;;;;24.27;45.23;100752.77;106317;1253;74887;-68
2023/10/05 09:21:45;;;;;;;3.00;1.90;;;;;;;24.21;46.21;100754.23;105584;1254;68022;-65
2023/10/05 09:24:22;;;;;;;4.70;2.30;;;;;;;24.24;46.58;100754.50;105744;1259;74287;-70
2023/10/05 09:26:50;;;;;;;2.90;1.80;;;;;;;24.11;48.44;100754.41;105712;1254;61940;-64
2023/10/05 09:29:21;;;;;;;4.30;2.10;;;;;;;23.86;50.50;100756.44;105866;1254;62371;-65
2023/10/05 09:31:54;;;;;;;4.60;1.90;;;;;;;23.56;53.27;100755.13;105784;1253;74931;-63
2023/10/05 09:34:34;;;;;;;3.70;2.30;;;;;;;23.39;57.10;100752.35;105557;1256;67886;-68
2023/10/05 09:37:05;;;;;;;4.60;2.30;;;;;;;23.56;59.81;100746.55;105930;1256;73941;-71
2023/10/05 09:39:43;;;;;;;3.70;2.00;;;;;;;24.00;60.41;100742.27;105743;1259;61955;-64
2023/10/05 09:42:17;;;;;;;3.90;2.10;;;;;;;24.49;53.47;100737.39;105622;1254;60863;-65
2023/10/05 09:44:52;;;;;;;3.40;1.80;;;;;;;24.85;45.11;100735.94;105818;1257;74870;-68
2023/10/05 09:47:32;;;;;;;3.50;2.30;;;;;;;25.07;43.26;100735.04;106042;1256;67452;-64
2023/10/05 09:50:01;;;;;;;5.10;2.70;;;;;;;25.39;42.23;100734.90;105658;1254;74730;-63
2023/10/05 09:52:38;;;;;;;4.80;2.30;;;;;;;25.41;40.34;100732.07;105562;1260;60692;-64
2023/10/05 09:55:06;;;;;;;4.80;2.20;;;;;;;25.17;41.90;100734.14;105715;1257;61351;-63
2023/10/05 09:57:46;;;;;;;3.70;2.10;;;;;;;25.24;43.23;100732.16;105626;1254;73552;-63
2023/10/05 10:03:01;;;;;;;3.10;2.00;;;;;;;25.86;41.94;100720.21;105640;1254;74083;-60
2023/10/05 10:05:35;;;;;;;4.30;2.40;;;;;;;26.13;40.88;100718.23;105887;1257;61164;-61
2023/10/05 10:08:12;;;;;;;3.70;2.00;;;;;;;26.17;40.58;100716.45;105585;1254;61885;-59
2023/10/05 10:10:51;;;;;;;3.90;2.50;;;;;;;26.00;40.32;100721.61;105513;1256;75039;-62
2023/10/05 10:13:22;;;;;;;6.20;2.30;;;;;;;25.52;40.59;100726.34;105625;1259;67731;-64
2023/10/05 10:15:53;;;;;;;5.60;2.30;;;;;;;25.10;42.25;100727.73;105685;1254;74182;-64
2023/10/05 10:18:30;;;;;;;4.50;2.10;;;;;;;24.66;43.10;100726.70;105688;1259;60740;-64
2023/10/05 10:20:58;;;;;;;7.30;2.40;;;;;;;24.17;44.64;100730.30;105637;1254;61753;-64
2023/10/05 10:23:35;;;;;;;4.70;2.30;;;;;;;23.83;47.23;100725.58;105677;1256;75559;-64
2023/10/05 10:26:06;;;;;;;4.70;2.10;;;;;;;23.64;49.67;100726.48;105908;1259;68432;-64
2023/10/05 10:28:45;;;;;;;4.90;2.60;;;;;;;23.51;51.18;100723.95;105826;1254;73742;-66
2023/10/05 10:31:38;;;;;;;3.70;2.00;;;;;;;23.30;52.48;100725.79;105413;1254;60974;-66
2023/10/05 10:34:19;;;;;;;5.00;2.40;;;;;;;23.16;51.96;100724.48;105788;1254;61634;-69
2023/10/05 10:36:53;;;;;;;4.70;2.10;;;;;;;23.00;51.85;100726.95;105835;1254;74235;-69
2023/10/05 10:39:24;;;;;;;5.50;2.30;;;;;;;22.80;52.45;100723.93;105707;1259;67449;-65
2023/10/05 10:42:04;;;;;;;3.20;2.00;;;;;;;22.59;53.52;100722.48;105828;1254;73168;-69
2023/10/05 10:45:13;;;;;;;4.30;1.80;;;;;;;22.42;54.94;100724.11;105661;1253;61653;-73
2023/10/05 10:47:39;;;;;;;4.20;1.90;;;;;;;22.32;55.28;100724.77;105669;1259;60925;-66
2023/10/05 10:50:22;;;;;;;3.90;1.80;;;;;;;22.41;58.52;100719.39;106051;1253;75288;-65
2023/10/05 10:52:50;;;;;;;4.70;2.00;;;;;;;22.73;56.05;100720.75;106032;1254;69207;-67
2023/10/05 10:55:20;;;;;;;5.30;1.70;;;;;;;22.84;51.82;100719.30;105654;1257;74388;-63
2023/10/05 10:57:47;;;;;;;4.70;1.70;;;;;;;22.82;51.79;100720.77;105694;1259;61106;-64
2023/10/05 11:03:12;;;;;;;4.20;2.30;;;;;;;22.75;50.17;100723.27;105445;1257;75632;-65
2023/10/05 11:05:40;;;;;;;4.10;2.00;;;;;;;22.52;49.97;100720.55;105436;1254;68771;-69
2023/10/05 11:08:12;;;;;;;4.10;2.20;;;;;;;22.29;50.84;100718.20;105970;1254;74694;-62
2023/10/05 11:10:42;;;;;;;4.50;2.30;;;;;;;22.17;52.70;100718.23;105934;1253;62271;-63
2023/10/05 11:13:30;;;;;;;;;;;;;;;22.22;53.07;100712.80;105641;1256;60714;-62
2023/10/05 11:15:59;;;;;;;4.70;2.30;;;;;;;22.45;51.94;100712.52;105857;1257;75410;-63
2023/10/05 11:18:31;;;;;;;6.20;2.30;;;;;;;22.78;49.65;100712.45;105555;1258;68507;-62
2023/10/05 11:21:06;;;;;;;;;;;;;;;23.08;45.99;100706.23;105586;1254;74232;-63
2023/10/05 11:24:06;;;;;;;3.70;1.70;;;;;;;23.33;44.20;100701.81;105776;1256;62274;-63
2023/10/05 11:26:35;;;;;;;3.90;2.20;;;;;;;23.63;42.44;100703.33;105870;1254;62270;-62
2023/10/05 11:29:28;;;;;;;3.70;2.00;;;;;;;23.96;42.50;100704.50;105803;1254;75725;-63
2023/10/05 11:32:03;;;;;;;5.30;2.10;;;;;;;24.38;42.80;100703.19;105706;1257;66746;-62
2023/10/05 11:34:55;;;;;;;6.30;2.90;;;;;;;24.89;40.89;100701.23;105483;1257;74193;-67
2023/10/05 11:37:45;;;;;;;5.90;2.20;;;;;;;25.15;38.91;100695.67;105625;1254;61768;-65
2023/10/05 11:40:23;;;;;;;4.70;2.30;;;;;;;25.20;38.36;100701.96;105562;1256;61320;-65
2023/10/05 11:42:50;;;;;;;4.30;2.60;;;;;;;25.19;37.76;100704.48;105518;1255;74647;-62
2023/10/05 11:45:18;;;;;;;5.80;3.10;;;;;;;25.14;37.45;100696.54;105750;1254;68593;-63
2023/10/05 11:47:52;;;;;;;6.90;3.00;;;;;;;25.08;37.40;100699.88;105947;1254;73006;-66
2023/10/05 11:50:25;;;;;;;3.90;1.80;;;;;;;24.99;37.13;100697.69;106155;1254;61975;-64
2023/10/05 11:52:53;;;;;;;4.50;2.20;;;;;;;24.90;36.72;100698.39;105734;1254;62397;-62
2023/10/05 11:55:20;;;;;;;4.00;2.20;;;;;;;24.85;37.14;100692.41;105820;1254;75172;-61
2023/10/05 11:57:48;;;;;;;3.30;2.20;;;;;;;24.80;37.08;100694.81;105795;1254;68581;-64
2023/10/05 12:00:16;;;;;;;4.00;2.00;;;;;;;24.64;36.68;100692.58;105909;1258;73392;-63
2023/10/05 12:02:44;;;;;;;5.30;2.00;;;;;;;24.49;36.96;100687.88;105809;1254;60715;-65
2023/10/05 12:05:12;;;;;;;5.50;2.10;;;;;;;24.38;36.98;100684.80;105692;1254;61866;-62
2023/10/05 12:07:41;;;;;;;4.00;2.00;;;;;;;24.29;37.07;100680.67;105894;1254;75347;-69
2023/10/05 12:10:09;;;;;;;3.70;2.10;;;;;;;24.25;37.36;100674.80;105744;1258;68461;-63
2023/10/05 12:12:41;;;;;;;3.30;1.90;;;;;;;24.18;38.06;100672.28;106325;1254;74564;-63
2023/10/05 12:15:12;;;;;;;6.10;2.50;;;;;;;24.10;38.31;100678.13;105562;1254;60910;-65
2023/10/05 12:17:40;;;;;;;3.20;1.60;;;;;;;24.09;39.07;100681.89;105738;1256;61271;-68
2023/10/05 12:20:08;;;;;;;4.40;1.80;;;;;;;24.10;38.29;100676.69;105951;1253;75421;-65
2023/10/05 12:22:37;;;;;;;4.40;1.90;;;;;;;24.05;37.90;100678.86;106031;1260;68353;-73
2023/10/05 12:37:44;;;;;;;3.30;2.20;;;;;;;23.53;37.51;100668.46;103135;1286;612695;-67
2023/10/05 12:40:18;;;;;;;4.10;1.70;;;;;;;23.33;38.35;100667.39;104867;1263;129365;-66
2023/10/05 12:42:53;;;;;;;3.80;1.90;;;;;;;23.18;38.54;100668.86;104924;1265;62117;-68
2023/10/05 12:45:44;;;;;;;4.20;1.90;;;;;;;23.03;38.36;100667.85;104894;1269;74501;-69
2023/10/05 12:48:14;;;;;;;3.40;1.80;;;;;;;22.88;38.85;100668.13;105029;1269;69287;-65
2023/10/05 12:50:43;;;;;;;3.60;1.90;;;;;;;22.76;38.81;100665.64;104991;1269;75213;-63
2023/10/05 12:53:11;;;;;;;3.30;2.20;;;;;;;22.67;39.07;100673.76;104989;1271;59329;-65
2023/10/05 12:55:39;;;;;;;3.80;1.50;;;;;;;22.56;39.12;100672.29;105051;1269;59259;-64
2023/10/05 12:58:09;;;;;;;4.20;2.30;;;;;;;22.47;39.63;100672.42;105034;1263;72266;-63
2023/10/05 13:00:41;;;;;;;4.80;2.60;;;;;;;22.39;40.00;100680.20;105110;1268;65682;-64
2023/10/05 13:03:12;;;;;;;5.70;3.00;;;;;;;22.33;40.51;100679.72;104968;1269;71405;-64
2023/10/05 13:05:43;;;;;;;5.10;2.60;;;;;;;22.28;41.25;100680.41;104702;1267;59732;-65
2023/10/05 13:08:11;;;;;;;3.90;2.10;;;;;;;22.20;40.97;100676.29;105005;1269;59554;-64
2023/10/05 13:10:40;;;;;;;3.90;2.00;;;;;;;22.13;41.10;100680.14;104917;1269;73087;-62
2023/10/05 13:13:17;;;;;;;6.60;2.60;;;;;;;22.03;41.33;100678.63;105276;1269;67218;-67
2023/10/05 13:15:46;;;;;;;5.50;1.90;;;;;;;21.94;41.46;100681.60;104771;1268;72614;-66
2023/10/05 13:18:25;;;;;;;4.00;2.00;;;;;;;21.83;41.71;100683.02;104960;1270;60141;-66
2023/10/05 13:20:54;;;;;;;4.20;1.80;;;;;;;21.70;42.78;100686.09;105103;1269;60052;-69
2023/10/05 13:23:22;;;;;;;4.10;1.90;;;;;;;21.59;42.92;100688.29;104556;1266;73070;-62
2023/10/05 13:25:52;;;;;;;5.80;2.20;;;;;;;21.46;42.98;100683.56;104580;1264;65728;-64
2023/10/05 13:28:21;;;;;;;4.20;2.20;;;;;;;21.35;43.90;100689.77;104818;1269;72614;-65
2023/10/05 13:30:54;;;;;;;5.40;1.90;;;;;;;21.29;44.58;100688.79;105582;1268;61479;-70
2023/10/05 13:33:28;;;;;;;4.40;1.90;;;;;;;21.24;44.85;100687.66;105455;1261;61047;-65
2023/10/05 13:35:57;;;;;;;3.50;2.00;;;;;;;21.15;45.14;100688.91;105236;1257;73075;-62
2023/10/05 13:38:28;;;;;;;3.90;1.70;;;;;;;21.04;45.38;100694.46;105409;1264;67023;-65
2023/10/05 13:41:18;;;;;;;7.10;2.20;;;;;;;20.90;45.53;100692.61;105300;1262;75513;-62
2023/10/05 13:43:45;;;;;;;3.50;1.70;;;;;;;20.73;46.18;100688.34;105318;1263;59797;-64
2023/10/05 13:46:27;;;;;;;3.90;1.80;;;;;;;20.58;46.99;100695.26;105507;1257;60070;-70
2023/10/05 13:48:55;;;;;;;4.30;1.60;;;;;;;20.41;47.91;100692.84;105425;1263;71870;-64
2023/10/05 13:51:23;;;;;;;4.80;2.00;;;;;;;20.26;48.32;100693.36;105385;1262;65629;-62